»·PEaware :: AAL214 KBOI-KSLC

AAL214 :: KBOI-KSLC

FLIGHT INFORMATION

Flight Status: Arrived
Operator:
American Airlines
More flights by this operator :: More flights under this callsign
Pilot: Jim V. (20680)
Aircraft: BOEING 737-800
(B738)
More flights by this aircraft type
Origin: KBOI Boise Air Terminal/Gowen
United States
Destination: KSLC Salt Lake City Intl
United States
More flights between these airports :: More routes between these airports
Route: +BOI3 ROARR BYI SKEES5
File this flight plan on PilotEdge
Remarks: PBN / A1B1C1D1S1S2 NAV / RNVD1E2A1 DAT / V DOF / 181005 REG / N806SB
Altitude:
(Current/Filed)
31,000ft
Speed:
(Current/Filed)
433kts
Departed: 05-Oct-18 11:43 AM
Arrived: 05-Oct-18 12:39 PM
Distance/Time
Traveled:
252nm/0:56
Distance/Time
To Go:
Arrived

Flight Plot

Page will automatically refresh every two minutes.

Flight plan parsing failed; only flown route is shown


Map Options




Map Legend


Flown Route
Filed Route
Departure Airport
Arrival Airport
Navaid (VOR, NDB)
Fix

Horizontal Profiles

Position Reports

Time Latitude Longitude Heading Altitude Ground
Speed
05-Oct-18 11:23 43.567378 -116.221220 24 2851ft 0kts
05-Oct-18 11:24 43.567378 -116.221220 24 2851ft 0kts
05-Oct-18 11:25 43.567378 -116.221220 24 2851ft 0kts
05-Oct-18 11:26 43.567378 -116.221220 24 2851ft 0kts
05-Oct-18 11:27 43.567378 -116.221220 24 2851ft 0kts
05-Oct-18 11:28 43.567378 -116.221220 24 2851ft 0kts
05-Oct-18 11:29 43.567378 -116.221220 24 2851ft 0kts
05-Oct-18 11:30 43.567378 -116.221220 24 2851ft 0kts
05-Oct-18 11:31 43.567378 -116.221220 24 2851ft 0kts
05-Oct-18 11:32 43.567378 -116.221220 24 2851ft 0kts
05-Oct-18 11:33 43.567378 -116.221220 24 2851ft 0kts
05-Oct-18 11:34 43.567378 -116.221220 24 2851ft 0kts
05-Oct-18 11:35 43.567378 -116.221220 24 2851ft 0kts
05-Oct-18 11:36 43.567349 -116.221238 24 2851ft 0kts
05-Oct-18 11:37 43.567176 -116.221344 23 2851ft 1kts
05-Oct-18 11:38 43.566785 -116.221298 297 2852ft 0kts
05-Oct-18 11:39 43.566785 -116.221298 297 2852ft 0kts
05-Oct-18 11:40 43.566807 -116.221382 282 2852ft 0kts
05-Oct-18 11:41 43.566816 -116.223517 293 2849ft 12kts
05-Oct-18 11:42 43.568780 -116.229197 294 2841ft 20kts
05-Oct-18 11:43 43.570981 -116.235939 257 2829ft 3kts
05-Oct-18 11:44 43.570975 -116.235967 254 2829ft 0kts
05-Oct-18 11:45 43.566548 -116.226183 115 2847ft 128kts
05-Oct-18 11:46 43.544450 -116.159989 111 4609ft 248kts
05-Oct-18 11:47 43.516608 -116.064992 113 8135ft 287kts
05-Oct-18 11:48 43.482734 -115.958806 113 11001ft 340kts
05-Oct-18 11:49 43.442831 -115.834445 114 14289ft 370kts
05-Oct-18 11:50 43.399425 -115.699910 114 16027ft 405kts
05-Oct-18 11:51 43.353401 -115.557952 114 16019ft 407kts
05-Oct-18 11:52 43.307069 -115.415752 114 16020ft 407kts
05-Oct-18 11:53 43.252506 -115.281928 124 16017ft 406kts
05-Oct-18 11:54 43.190421 -115.152275 124 17970ft 400kts
05-Oct-18 11:55 43.128790 -115.023510 124 21028ft 415kts
05-Oct-18 11:56 43.064460 -114.888724 124 23585ft 435kts
05-Oct-18 11:57 42.996926 -114.746886 123 25855ft 456kts
05-Oct-18 11:58 42.926677 -114.598974 122 27973ft 475kts
05-Oct-18 11:59 42.854140 -114.445865 122 29941ft 491kts
05-Oct-18 12:00 42.780092 -114.289097 122 31200ft 508kts
05-Oct-18 12:01 42.703232 -114.125893 122 31198ft 513kts
05-Oct-18 12:02 42.626622 -113.962931 122 31200ft 513kts
05-Oct-18 12:03 42.541284 -113.809762 136 31205ft 512kts
05-Oct-18 12:04 42.439565 -113.675516 136 31203ft 512kts
05-Oct-18 12:05 42.338145 -113.540991 136 31205ft 512kts
05-Oct-18 12:06 42.253498 -113.428966 136 31206ft 512kts
05-Oct-18 12:07 42.136918 -113.275193 136 31202ft 505kts
05-Oct-18 12:08 42.053644 -113.165736 136 31202ft 506kts
05-Oct-18 12:09 41.939942 -113.016952 136 28518ft 478kts
05-Oct-18 12:10 41.847219 -112.896235 136 25130ft 474kts
05-Oct-18 12:11 41.770087 -112.796218 136 22615ft 456kts
05-Oct-18 12:12 41.667326 -112.663581 136 19578ft 431kts
05-Oct-18 12:13 41.596105 -112.572134 136 17200ft 420kts
05-Oct-18 12:14 41.512008 -112.468663 145 17002ft 415kts
05-Oct-18 12:15 41.433594 -112.374259 131 16986ft 346kts
05-Oct-18 12:16 41.362396 -112.304701 168 17007ft 325kts
05-Oct-18 12:17 41.275330 -112.278822 170 16499ft 319kts
05-Oct-18 12:18 41.189187 -112.255274 172 15067ft 313kts
05-Oct-18 12:19 41.117409 -112.194459 140 13712ft 310kts
05-Oct-18 12:20 41.044745 -112.141054 160 12480ft 299kts
05-Oct-18 12:21 40.965823 -112.116231 176 11258ft 290kts
05-Oct-18 12:22 40.887987 -112.107181 176 10999ft 289kts
05-Oct-18 12:23 40.808214 -112.097960 176 10998ft 289kts
05-Oct-18 12:24 40.728230 -112.088678 176 10999ft 289kts
05-Oct-18 12:25 40.649491 -112.079501 176 10986ft 268kts
05-Oct-18 12:26 40.578426 -112.071223 176 10999ft 255kts
05-Oct-18 12:27 40.508240 -112.063090 177 10999ft 255kts
05-Oct-18 12:28 40.437599 -112.054910 177 10999ft 255kts
05-Oct-18 12:29 40.384288 -112.009864 95 11017ft 246kts
05-Oct-18 12:30 40.416182 -111.950657 9 10711ft 209kts
05-Oct-18 12:31 40.472886 -111.954207 352 10182ft 206kts
05-Oct-18 12:32 40.529896 -111.961502 351 9140ft 208kts
05-Oct-18 12:33 40.558217 -111.965448 352 8583ft 211kts
05-Oct-18 12:41 40.791525 -111.995481 62 4224ft 12kts
05-Oct-18 12:42 40.792196 -111.986981 84 4223ft 25kts
05-Oct-18 12:43 40.790837 -111.982801 174 4222ft 0kts
05-Oct-18 12:44 40.790061 -111.980832 104 4223ft 6kts
05-Oct-18 12:45 40.788449 -111.979951 196 4223ft 8kts
05-Oct-18 12:46 40.788118 -111.980944 291 4224ft 0kts
05-Oct-18 12:47 40.788118 -111.980944 291 4224ft 0kts
05-Oct-18 12:48 40.788118 -111.980944 291 4224ft 0kts
05-Oct-18 12:49 40.788118 -111.980944 291 4224ft 0kts

Navigation Log

Ident Type
Flight plan parsing failed, navigation log unavailable